createdAt,value
2016-11-16T12:17:57.552Z,11.25
2016-11-16T12:18:57.845Z,11.29
2016-11-16T12:19:57.538Z,11.28
2016-11-16T12:20:57.527Z,11.28
2016-11-16T12:21:57.524Z,11.28
2016-11-16T12:22:57.510Z,11.21
2016-11-16T12:23:57.506Z,11.28
2016-11-16T12:24:57.504Z,11.27
2016-11-16T12:25:57.491Z,11.22
2016-11-16T12:26:57.489Z,11.24
2016-11-16T12:27:57.484Z,11.22
2016-11-16T12:28:57.470Z,11.27
2016-11-16T12:29:57.467Z,11.24
2016-11-16T12:30:57.458Z,11.24
2016-11-16T12:31:57.452Z,11.22
2016-11-16T12:32:57.446Z,11.21
2016-11-16T12:33:57.439Z,11.29
2016-11-16T12:34:57.436Z,11.35
2016-11-16T12:35:57.422Z,11.33
2016-11-16T12:36:57.416Z,11.25
2016-11-16T12:37:57.723Z,11.29
2016-11-16T12:38:57.402Z,11.28
2016-11-16T12:39:57.398Z,11.24
2016-11-16T12:40:57.388Z,11.25
2016-11-16T12:41:57.381Z,11.21
2016-11-16T12:42:57.373Z,11.27
2016-11-16T12:43:57.371Z,11.22
2016-11-16T12:44:57.361Z,11.32
2016-11-16T12:45:57.358Z,11.29
2016-11-16T12:46:57.346Z,11.24
2016-11-16T12:47:57.338Z,11.24
2016-11-16T12:48:57.333Z,11.27
2016-11-16T12:49:57.323Z,11.24
2016-11-16T12:50:57.317Z,11.24
2016-11-16T12:51:57.307Z,11.21
2016-11-16T12:52:57.301Z,11.21
2016-11-16T12:53:57.300Z,11.18
2016-11-16T12:54:57.290Z,11.11
2016-11-16T12:55:57.286Z,11.18
2016-11-16T12:56:57.298Z,11.17
2016-11-16T12:57:57.275Z,11.17
2016-11-16T12:58:57.261Z,11.18
2016-11-16T12:59:57.262Z,11.07
2016-11-16T13:00:57.554Z,11.14
2016-11-16T13:01:57.553Z,11.11
2016-11-16T13:02:57.235Z,11.02
2016-11-16T13:03:57.226Z,11.06
2016-11-16T13:04:57.216Z,10.94
2016-11-16T13:05:57.522Z,10.94
2016-11-16T13:06:57.205Z,11.07
2016-11-16T13:07:57.196Z,11.03
2016-11-16T13:08:57.185Z,11.07
2016-11-16T13:09:57.181Z,11.11
2016-11-16T13:10:57.172Z,11.1
2016-11-16T13:11:57.177Z,11.1
2016-11-16T13:12:57.159Z,11.1
2016-11-16T13:13:57.156Z,11.17
2016-11-16T13:14:57.149Z,11.07
2016-11-16T13:15:57.138Z,11.07
2016-11-16T13:16:57.131Z,11.04
2016-11-16T13:17:57.435Z,11.09
2016-11-16T13:18:57.117Z,11
2016-11-16T13:19:57.105Z,10.92
2016-11-16T13:20:57.100Z,10.86
2016-11-16T13:21:57.101Z,10.85
2016-11-16T13:22:57.427Z,10.78
2016-11-16T13:23:57.082Z,10.78
2016-11-16T13:24:57.093Z,10.74
2016-11-16T13:25:57.369Z,10.63
2016-11-16T13:26:57.059Z,10.6
2016-11-16T13:27:57.052Z,10.61
2016-11-16T13:28:57.039Z,10.55
2016-11-16T13:29:57.040Z,10.51
2016-11-16T13:30:57.026Z,10.44
2016-11-16T13:31:57.025Z,10.4
2016-11-16T13:32:57.014Z,10.41
2016-11-16T13:33:57.008Z,10.33
2016-11-16T13:34:57.000Z,10.3
2016-11-16T13:35:56.990Z,10.29
2016-11-16T13:36:56.985Z,10.29
2016-11-16T13:37:56.975Z,10.17
2016-11-16T13:38:56.965Z,10.2
2016-11-16T13:39:56.958Z,10.23
2016-11-16T13:40:56.954Z,10.09
2016-11-16T13:41:56.946Z,10.09
2016-11-16T13:42:57.238Z,10.08
2016-11-16T13:43:56.929Z,9.97
2016-11-16T13:44:56.919Z,10.02
2016-11-16T13:45:56.916Z,10.04
2016-11-16T13:46:56.901Z,9.93
2016-11-16T13:47:56.901Z,9.9
2016-11-16T13:48:56.892Z,9.96
2016-11-16T13:49:56.878Z,9.91
2016-11-16T13:50:56.874Z,9.89
2016-11-16T13:51:56.879Z,9.86
2016-11-16T13:52:56.859Z,9.81
2016-11-16T13:53:56.850Z,9.83
2016-11-16T13:54:56.842Z,9.87
2016-11-16T13:55:56.833Z,9.89
2016-11-16T13:56:56.847Z,9.87
2016-11-16T13:57:56.818Z,9.81
2016-11-16T13:58:56.810Z,9.79
2016-11-16T13:59:56.829Z,9.81
2016-11-16T14:00:57.105Z,9.78
2016-11-16T14:01:56.788Z,9.84
2016-11-16T14:02:56.772Z,9.79
2016-11-16T14:03:56.775Z,9.79
2016-11-16T14:04:56.763Z,9.81
2016-11-16T14:05:56.750Z,9.72
2016-11-16T14:06:57.048Z,9.78
2016-11-16T14:07:56.736Z,9.78
2016-11-16T14:08:56.727Z,9.78
2016-11-16T14:09:56.720Z,9.76
2016-11-16T14:10:56.712Z,9.78
2016-11-16T14:11:56.697Z,9.78
2016-11-16T14:12:56.692Z,9.78
2016-11-16T14:13:56.689Z,9.76
2016-11-16T14:14:56.877Z,9.81
2016-11-16T14:15:56.668Z,9.89
2016-11-16T14:16:56.659Z,9.87
2016-11-16T14:17:57.042Z,9.79
2016-11-16T14:18:56.642Z,9.76
2016-11-16T14:19:56.635Z,9.86
2016-11-16T14:20:56.635Z,9.78
2016-11-16T14:21:56.623Z,9.79
2016-11-16T14:22:56.616Z,9.89
2016-11-16T14:23:56.607Z,9.79
2016-11-16T14:24:56.587Z,9.81
2016-11-16T14:25:56.582Z,9.86
2016-11-16T14:26:56.600Z,9.89
2016-11-16T14:27:56.576Z,9.86
2016-11-16T14:28:56.556Z,9.83
2016-11-16T14:29:56.552Z,9.84
2016-11-16T14:30:56.542Z,9.87
2016-11-16T14:31:56.537Z,9.83
2016-11-16T14:32:56.530Z,9.86
2016-11-16T14:33:56.518Z,9.86
2016-11-16T14:34:56.509Z,9.97
2016-11-16T14:35:56.505Z,9.9
2016-11-16T14:36:56.493Z,9.93
2016-11-16T14:37:56.486Z,9.89
2016-11-16T14:38:56.480Z,9.86
2016-11-16T14:39:56.468Z,9.83
2016-11-16T14:40:56.462Z,9.9
2016-11-16T14:41:56.457Z,9.87
2016-11-16T14:42:56.447Z,9.79
2016-11-16T14:43:56.434Z,9.86
2016-11-16T14:44:56.766Z,9.87
2016-11-16T14:45:56.419Z,9.87
2016-11-16T14:46:56.419Z,9.76
2016-11-16T14:47:56.402Z,9.91
2016-11-16T14:48:56.698Z,9.87
2016-11-16T14:49:56.387Z,9.86
2016-11-16T14:50:56.377Z,9.79
2016-11-16T14:51:56.673Z,9.79
2016-11-16T14:52:56.361Z,9.81
2016-11-16T14:53:56.357Z,9.81
2016-11-16T14:54:56.344Z,9.79
2016-11-16T14:55:56.337Z,9.76
2016-11-16T14:56:56.330Z,9.81
2016-11-16T14:57:56.318Z,9.83
2016-11-16T14:58:56.313Z,9.83
2016-11-16T14:59:56.307Z,9.78
2016-11-16T15:00:56.295Z,9.75
2016-11-16T15:01:56.282Z,9.68
2016-11-16T15:02:56.275Z,9.78
2016-11-16T15:03:56.269Z,9.68
2016-11-16T15:04:56.288Z,9.69
2016-11-16T15:05:56.251Z,9.68
2016-11-16T15:06:56.245Z,9.72
2016-11-16T15:07:56.539Z,9.78
2016-11-16T15:08:56.224Z,9.68
2016-11-16T15:09:56.219Z,9.68
2016-11-16T15:10:56.212Z,9.68
2016-11-16T15:11:56.203Z,9.66
2016-11-16T15:12:56.201Z,9.71
2016-11-16T15:13:56.190Z,9.65
2016-11-16T15:14:56.174Z,9.69
2016-11-16T15:15:56.473Z,9.66
2016-11-16T15:16:56.157Z,9.68
2016-11-16T15:17:56.154Z,9.75
2016-11-16T15:18:56.147Z,9.71
2016-11-16T15:19:56.135Z,9.74
2016-11-16T15:20:56.137Z,9.72
2016-11-16T15:21:56.116Z,9.72
2016-11-16T15:22:56.108Z,9.74
2016-11-16T15:23:56.100Z,9.6
2016-11-16T15:24:56.094Z,9.72
2016-11-16T15:25:56.083Z,9.64
2016-11-16T15:26:56.072Z,9.69
2016-11-16T15:27:56.100Z,9.66
2016-11-16T15:28:56.058Z,9.72
2016-11-16T15:29:56.050Z,9.69
2016-11-16T15:30:56.048Z,9.69
2016-11-16T15:31:56.034Z,9.68
2016-11-16T15:32:56.022Z,9.66
2016-11-16T15:33:56.018Z,9.69
2016-11-16T15:34:56.009Z,9.66
2016-11-16T15:35:56.004Z,9.71
2016-11-16T15:36:55.994Z,9.68
2016-11-16T15:37:55.984Z,9.69
2016-11-16T15:38:55.969Z,9.68
2016-11-16T15:39:55.965Z,9.71
2016-11-16T15:40:55.955Z,9.74
2016-11-16T15:41:55.951Z,9.69
2016-11-16T15:42:56.245Z,9.68
2016-11-16T15:43:55.931Z,9.71
2016-11-16T15:44:55.920Z,9.71
2016-11-16T15:45:55.916Z,9.71
2016-11-16T15:46:55.920Z,9.68
2016-11-16T15:47:55.900Z,9.71
2016-11-16T15:48:55.889Z,9.68
2016-11-16T15:49:55.881Z,9.76
2016-11-16T15:50:55.874Z,9.75
2016-11-16T15:51:55.863Z,9.86
2016-11-16T15:52:55.857Z,9.81
2016-11-16T15:53:55.848Z,9.78
2016-11-16T15:54:55.837Z,9.76
2016-11-16T15:55:55.833Z,9.81
2016-11-16T15:56:55.821Z,9.9
2016-11-16T15:57:55.814Z,9.81
2016-11-16T15:58:55.806Z,9.83
2016-11-16T15:59:55.796Z,9.81
2016-11-16T16:00:55.793Z,9.84
2016-11-16T16:01:55.777Z,9.86
2016-11-16T16:02:55.773Z,9.83
2016-11-16T16:03:55.761Z,9.78
2016-11-16T16:04:55.755Z,9.89
2016-11-16T16:05:55.742Z,9.89
2016-11-16T16:06:55.738Z,9.84
2016-11-16T16:07:55.729Z,9.84
2016-11-16T16:08:55.719Z,9.83
2016-11-16T16:09:55.715Z,9.78
2016-11-16T16:10:55.701Z,9.9
2016-11-16T16:11:55.696Z,9.89
2016-11-16T16:12:55.694Z,9.87
2016-11-16T16:13:55.679Z,9.86
2016-11-16T16:14:55.671Z,9.9
2016-11-16T16:15:55.659Z,9.89
2016-11-16T16:16:55.665Z,9.99
2016-11-16T16:17:55.647Z,10.04
2016-11-16T16:18:55.634Z,9.93
2016-11-16T16:19:55.630Z,9.94
2016-11-16T16:20:55.623Z,9.9
2016-11-16T16:21:55.611Z,9.96
2016-11-16T16:22:55.907Z,9.91
2016-11-16T16:23:55.597Z,9.91
2016-11-16T16:24:55.584Z,9.99
2016-11-16T16:25:55.576Z,10.07
2016-11-16T16:26:55.567Z,9.96
2016-11-16T16:27:55.561Z,10.07
2016-11-16T16:28:55.555Z,9.94
2016-11-16T16:29:55.542Z,10.01
2016-11-16T16:30:55.533Z,9.94
2016-11-16T16:31:55.527Z,9.99
2016-11-16T16:32:55.517Z,10.07
2016-11-16T16:33:55.510Z,10.02
2016-11-16T16:34:55.502Z,10.04
2016-11-16T16:35:55.488Z,10.02
2016-11-16T16:36:55.486Z,10.07
2016-11-16T16:37:55.478Z,10.02
2016-11-16T16:38:55.499Z,9.99
2016-11-16T16:39:55.457Z,9.9
2016-11-16T16:40:55.446Z,9.94
2016-11-16T16:41:55.441Z,10.02
2016-11-16T16:42:55.436Z,9.97
2016-11-16T16:43:55.425Z,10.09
2016-11-16T16:44:55.416Z,9.99
2016-11-16T16:45:55.410Z,10.09
2016-11-16T16:46:55.408Z,10.14
2016-11-16T16:47:55.392Z,10.07
2016-11-16T16:48:55.389Z,10.08
2016-11-16T16:49:55.383Z,10.2
2016-11-16T16:50:55.370Z,10.26
2016-11-16T16:51:55.355Z,10.15
2016-11-16T16:52:55.351Z,10.23
2016-11-16T16:53:55.348Z,10.22
2016-11-16T16:54:55.650Z,10.22
2016-11-16T16:55:55.328Z,10.2
2016-11-16T16:56:55.315Z,10.2
2016-11-16T16:57:55.308Z,10.2
2016-11-16T16:58:55.302Z,10.23
2016-11-16T16:59:55.286Z,10.3
2016-11-16T17:00:55.283Z,10.32
2016-11-16T17:01:55.282Z,10.32
2016-11-16T17:02:55.273Z,10.3
2016-11-16T17:03:55.266Z,10.26
2016-11-16T17:04:55.248Z,10.4
2016-11-16T17:05:55.243Z,10.29
2016-11-16T17:06:55.231Z,10.34
2016-11-16T17:07:55.222Z,10.36
2016-11-16T17:08:55.216Z,10.36
2016-11-16T17:09:55.209Z,10.4
2016-11-16T17:10:55.206Z,10.51
2016-11-16T17:11:55.192Z,10.33
2016-11-16T17:12:55.191Z,10.34
2016-11-16T17:13:55.176Z,10.38
2016-11-16T17:14:55.170Z,10.47
2016-11-16T17:15:55.163Z,10.42
2016-11-16T17:16:55.152Z,10.4
2016-11-16T17:17:55.145Z,10.45
2016-11-16T17:18:55.143Z,10.38
2016-11-16T17:19:55.132Z,10.44
2016-11-16T17:20:55.121Z,10.4
2016-11-16T17:21:55.118Z,10.42
2016-11-16T17:22:55.107Z,10.36
2016-11-16T17:23:55.100Z,10.33
2016-11-16T17:24:55.090Z,10.44
2016-11-16T17:25:55.083Z,10.34
2016-11-16T17:26:55.074Z,10.33
2016-11-16T17:27:55.065Z,10.32
2016-11-16T17:28:55.062Z,10.32
2016-11-16T17:29:55.054Z,10.4
2016-11-16T17:30:55.048Z,10.36
2016-11-16T17:31:55.031Z,10.34
2016-11-16T17:32:55.028Z,10.34
2016-11-16T17:33:55.025Z,10.32
2016-11-16T17:34:55.009Z,10.3
2016-11-16T17:35:55.014Z,10.33
2016-11-16T17:36:54.995Z,10.32
2016-11-16T17:37:54.992Z,10.36
2016-11-16T17:38:54.981Z,10.42
2016-11-16T17:39:54.971Z,10.38
2016-11-16T17:40:54.966Z,10.44
2016-11-16T17:41:54.954Z,10.45
2016-11-16T17:42:54.950Z,10.47
2016-11-16T17:43:54.938Z,10.47
2016-11-16T17:44:54.928Z,10.38
2016-11-16T17:45:54.919Z,10.42
2016-11-16T17:46:54.910Z,10.51
2016-11-16T17:47:55.211Z,10.45
2016-11-16T17:48:54.900Z,10.4
2016-11-16T17:49:54.891Z,10.51
2016-11-16T17:50:54.881Z,10.4
2016-11-16T17:51:54.870Z,10.47
2016-11-16T17:52:54.866Z,10.47
2016-11-16T17:53:54.861Z,10.51
2016-11-16T17:54:54.848Z,10.42
2016-11-16T17:55:54.844Z,10.47
2016-11-16T17:56:54.829Z,10.41
2016-11-16T17:57:54.824Z,10.44
2016-11-16T17:58:54.818Z,10.4
2016-11-16T17:59:54.808Z,10.44
2016-11-16T18:00:55.154Z,10.47
2016-11-16T18:01:54.789Z,10.47
2016-11-16T18:02:54.787Z,10.41
2016-11-16T18:03:54.780Z,10.41
2016-11-16T18:04:54.773Z,10.4
2016-11-16T18:05:54.768Z,10.47
2016-11-16T18:06:54.749Z,10.38
2016-11-16T18:07:54.743Z,10.38
2016-11-16T18:08:54.733Z,10.34
2016-11-16T18:09:54.728Z,10.4
2016-11-16T18:10:54.719Z,10.27
2016-11-16T18:11:54.714Z,10.34
2016-11-16T18:12:54.704Z,10.23
2016-11-16T18:13:54.689Z,10.17
2016-11-16T18:14:54.689Z,10.23
2016-11-16T18:15:54.676Z,10.18
2016-11-16T18:16:54.668Z,10.25
2016-11-16T18:17:54.664Z,10.22
2016-11-16T18:18:54.651Z,10.18
2016-11-16T18:19:54.641Z,10.2
2016-11-16T18:20:54.638Z,10.27
2016-11-16T18:21:54.630Z,10.22
2016-11-16T18:22:54.619Z,10.18
2016-11-16T18:23:54.610Z,10.22
2016-11-16T18:24:54.628Z,10.25
2016-11-16T18:25:54.602Z,10.23
2016-11-16T18:26:54.623Z,10.2
2016-11-16T18:27:54.582Z,10.22
2016-11-16T18:28:54.574Z,10.22
2016-11-16T18:29:54.561Z,10.34
2016-11-16T18:30:54.559Z,10.26
2016-11-16T18:31:54.549Z,10.27
2016-11-16T18:32:54.547Z,10.29
2016-11-16T18:33:54.533Z,10.38
2016-11-16T18:34:54.524Z,10.32
2016-11-16T18:35:54.515Z,10.38
2016-11-16T18:36:54.504Z,10.41
2016-11-16T18:37:54.500Z,10.41
2016-11-16T18:38:54.496Z,10.38
2016-11-16T18:39:54.483Z,10.47
2016-11-16T18:40:54.480Z,10.42
2016-11-16T18:41:54.470Z,10.51
2016-11-16T18:42:54.460Z,10.47
2016-11-16T18:43:54.454Z,10.47
2016-11-16T18:44:54.442Z,10.42
2016-11-16T18:45:54.749Z,10.44
2016-11-16T18:46:54.433Z,10.47
2016-11-16T18:47:54.419Z,10.41
2016-11-16T18:48:54.411Z,10.44
2016-11-16T18:49:54.406Z,10.47
2016-11-16T18:50:54.399Z,10.44
2016-11-16T18:51:54.388Z,10.42
2016-11-16T18:52:54.381Z,10.44
2016-11-16T18:53:54.369Z,10.3
2016-11-16T18:54:54.362Z,10.27
2016-11-16T18:55:54.357Z,10.27
2016-11-16T18:56:54.345Z,10.26
2016-11-16T18:57:54.342Z,10.18
2016-11-16T18:58:54.330Z,10.26
2016-11-16T18:59:54.322Z,10.04
2016-11-16T19:00:54.315Z,10.05
2016-11-16T19:01:54.304Z,9.94
2016-11-16T19:02:54.301Z,10.02
2016-11-16T19:03:54.291Z,9.87
2016-11-16T19:04:54.285Z,10.02
2016-11-16T19:05:54.279Z,10.01
2016-11-16T19:06:54.273Z,9.87
2016-11-16T19:07:54.564Z,9.99
2016-11-16T19:08:54.248Z,9.86
2016-11-16T19:09:54.246Z,9.81
2016-11-16T19:10:54.235Z,9.89
2016-11-16T19:11:54.221Z,9.87
2016-11-16T19:12:54.248Z,9.81
2016-11-16T19:13:54.208Z,9.75
2016-11-16T19:14:54.207Z,9.76
2016-11-16T19:15:54.188Z,9.78
2016-11-16T19:16:54.182Z,9.83
2016-11-16T19:17:54.175Z,9.71
2016-11-16T19:18:54.170Z,9.79
2016-11-16T19:19:54.160Z,9.81
2016-11-16T19:20:54.155Z,9.83
2016-11-16T19:21:54.143Z,9.87
2016-11-16T19:22:54.130Z,9.86
2016-11-16T19:23:54.130Z,9.96
2016-11-16T19:24:54.118Z,10.01
2016-11-16T19:25:54.111Z,10.01
2016-11-16T19:26:54.098Z,10.02
2016-11-16T19:27:54.094Z,10.01
2016-11-16T19:28:54.083Z,9.96
2016-11-16T19:29:54.076Z,10.07
2016-11-16T19:30:54.069Z,10.04
2016-11-16T19:31:54.063Z,10.15
2016-11-16T19:32:54.051Z,10.09
2016-11-16T19:33:54.352Z,10.08
2016-11-16T19:34:54.034Z,10.08
2016-11-16T19:35:54.027Z,10.07
2016-11-16T19:36:54.016Z,10.14
2016-11-16T19:37:54.012Z,10.18
2016-11-16T19:38:54.001Z,10.2
2016-11-16T19:39:53.992Z,10.2
2016-11-16T19:40:54.021Z,10.22
2016-11-16T19:41:53.983Z,10.2
2016-11-16T19:42:53.969Z,10.2
2016-11-16T19:43:54.263Z,10.2
2016-11-16T19:44:53.953Z,10.22
2016-11-16T19:45:53.952Z,10.22
2016-11-16T19:46:53.932Z,10.23
2016-11-16T19:47:53.920Z,10.23
2016-11-16T19:48:53.924Z,10.18
2016-11-16T19:49:53.907Z,10.22
2016-11-16T19:50:54.222Z,10.32
2016-11-16T19:51:53.894Z,10.3
2016-11-16T19:52:53.887Z,10.27
2016-11-16T19:53:53.875Z,10.27
2016-11-16T19:54:53.901Z,10.33
2016-11-16T19:55:53.863Z,10.3
2016-11-16T19:56:53.856Z,10.32
2016-11-16T19:57:53.847Z,10.22
2016-11-16T19:58:53.847Z,10.29
2016-11-16T19:59:53.845Z,10.32
2016-11-16T20:00:53.820Z,10.26
2016-11-16T20:01:53.807Z,10.34
2016-11-16T20:02:53.806Z,10.27
2016-11-16T20:03:53.791Z,10.26
2016-11-16T20:04:53.785Z,10.36
2016-11-16T20:05:53.778Z,10.3
2016-11-16T20:06:53.771Z,10.26
2016-11-16T20:07:53.769Z,10.26
2016-11-16T20:08:53.751Z,10.23
2016-11-16T20:09:54.047Z,10.34
2016-11-16T20:10:53.736Z,10.36
2016-11-16T20:11:53.731Z,10.32
2016-11-16T20:12:53.727Z,10.18
2016-11-16T20:13:53.711Z,10.18
2016-11-16T20:14:53.703Z,10.2
2016-11-16T20:15:53.701Z,10.18
2016-11-16T20:16:53.696Z,10.17
2016-11-16T20:17:53.709Z,10.15
2016-11-16T20:18:53.670Z,10.17
2016-11-16T20:19:53.664Z,10.25
2016-11-16T20:20:53.686Z,10.27
2016-11-16T20:21:53.652Z,10.23
2016-11-16T20:22:53.641Z,10.25
2016-11-16T20:23:53.969Z,10.26
2016-11-16T20:24:53.622Z,10.23
2016-11-16T20:25:53.613Z,10.26
2016-11-16T20:26:53.606Z,10.3
2016-11-16T20:27:53.598Z,10.33
2016-11-16T20:28:53.589Z,10.33
2016-11-16T20:29:53.585Z,10.4
2016-11-16T20:30:53.571Z,10.44
2016-11-16T20:31:53.571Z,10.47
2016-11-16T20:32:53.558Z,10.41
2016-11-16T20:33:53.556Z,10.44
2016-11-16T20:34:53.540Z,10.47
2016-11-16T20:35:53.532Z,10.53
2016-11-16T20:36:53.526Z,10.51
2016-11-16T20:37:53.518Z,10.52
2016-11-16T20:38:53.508Z,10.53
2016-11-16T20:39:53.500Z,10.6
2016-11-16T20:40:53.494Z,10.53
2016-11-16T20:41:53.516Z,10.56
2016-11-16T20:42:53.475Z,10.56
2016-11-16T20:43:53.467Z,10.55
2016-11-16T20:44:53.498Z,10.61
2016-11-16T20:45:53.459Z,10.59
2016-11-16T20:46:53.462Z,10.56
2016-11-16T20:47:53.749Z,10.51
2016-11-16T20:48:53.433Z,10.51
2016-11-16T20:49:53.418Z,10.63
2016-11-16T20:50:53.413Z,10.63
2016-11-16T20:51:53.410Z,10.67
2016-11-16T20:52:53.398Z,10.74
2016-11-16T20:53:53.393Z,10.74
2016-11-16T20:54:53.382Z,10.71
2016-11-16T20:55:53.374Z,10.64
2016-11-16T20:56:53.363Z,10.68
2016-11-16T20:57:53.657Z,10.66
2016-11-16T20:58:53.349Z,10.56
2016-11-16T20:59:53.341Z,10.63
2016-11-16T21:00:53.338Z,10.51
2016-11-16T21:01:53.328Z,10.44
2016-11-16T21:02:53.322Z,10.4
2016-11-16T21:03:53.308Z,10.45
2016-11-16T21:04:53.298Z,10.38
2016-11-16T21:05:53.296Z,10.36
2016-11-16T21:06:53.289Z,10.33
2016-11-16T21:07:53.591Z,10.29
2016-11-16T21:08:53.270Z,10.32
2016-11-16T21:09:53.263Z,10.3
2016-11-16T21:10:53.253Z,10.32
2016-11-16T21:11:53.246Z,10.23
2016-11-16T21:12:53.236Z,10.18
2016-11-16T21:13:53.227Z,10.25
2016-11-16T21:14:53.223Z,10.15
2016-11-16T21:15:53.213Z,10.2
2016-11-16T21:16:53.203Z,10.07
2016-11-16T21:17:53.194Z,10.09
2016-11-16T21:18:53.182Z,10.05
2016-11-16T21:19:53.210Z,10.07
2016-11-16T21:20:53.172Z,10.02
2016-11-16T21:21:53.469Z,9.96
2016-11-16T21:22:53.155Z,10.01
2016-11-16T21:23:53.143Z,10.04
2016-11-16T21:24:53.136Z,9.99
2016-11-16T21:25:53.126Z,9.93
2016-11-16T21:26:53.124Z,9.86
2016-11-16T21:27:53.109Z,9.83
2016-11-16T21:28:53.105Z,9.83
2016-11-16T21:29:53.095Z,9.9
2016-11-16T21:30:53.439Z,9.83
2016-11-16T21:31:53.082Z,9.79
2016-11-16T21:32:53.073Z,9.81
2016-11-16T21:33:53.063Z,9.83
2016-11-16T21:34:53.055Z,9.81
2016-11-16T21:35:53.046Z,9.84
2016-11-16T21:36:53.035Z,9.75
2016-11-16T21:37:53.027Z,9.79
2016-11-16T21:38:53.022Z,9.81
2016-11-16T21:39:53.017Z,9.66
2016-11-16T21:40:53.007Z,9.76
2016-11-16T21:41:52.997Z,9.68
2016-11-16T21:42:52.989Z,9.69
2016-11-16T21:43:53.282Z,9.71
2016-11-16T21:44:53.278Z,9.72
2016-11-16T21:45:52.968Z,9.72
2016-11-16T21:46:52.950Z,9.65
2016-11-16T21:47:52.948Z,9.58
2016-11-16T21:48:52.935Z,9.69
2016-11-16T21:49:52.932Z,9.74
2016-11-16T21:50:52.920Z,9.65
2016-11-16T21:51:52.912Z,9.61
2016-11-16T21:52:52.899Z,9.64
2016-11-16T21:53:52.926Z,9.64
2016-11-16T21:54:52.886Z,9.66
2016-11-16T21:55:52.873Z,9.56
2016-11-16T21:56:52.875Z,9.64
2016-11-16T21:57:52.859Z,9.56
2016-11-16T21:58:52.854Z,9.57
2016-11-16T21:59:52.842Z,9.58
2016-11-16T22:00:52.838Z,9.61
2016-11-16T22:01:52.823Z,9.54
2016-11-16T22:02:52.815Z,9.61
2016-11-16T22:03:52.806Z,9.58
2016-11-16T22:04:52.797Z,9.54
2016-11-16T22:05:52.789Z,9.58
2016-11-16T22:06:52.783Z,9.58
2016-11-16T22:07:52.779Z,9.58
2016-11-16T22:08:52.764Z,9.58
2016-11-16T22:09:52.758Z,9.61
2016-11-16T22:10:53.052Z,9.58
2016-11-16T22:11:52.740Z,9.58
2016-11-16T22:12:52.733Z,9.54
2016-11-16T22:13:52.723Z,9.53
2016-11-16T22:14:52.714Z,9.54
2016-11-16T22:15:52.702Z,9.56
2016-11-16T22:16:52.691Z,9.57
2016-11-16T22:17:52.718Z,9.6
2016-11-16T22:18:52.678Z,9.54
2016-11-16T22:19:52.667Z,9.53
2016-11-16T22:20:52.661Z,9.56
2016-11-16T22:21:52.649Z,9.57
2016-11-16T22:22:52.642Z,9.47
2016-11-16T22:23:52.634Z,9.53
2016-11-16T22:24:52.623Z,9.48
2016-11-16T22:25:52.619Z,9.54
2016-11-16T22:26:52.602Z,9.56
2016-11-16T22:27:52.599Z,9.47
2016-11-16T22:28:52.588Z,9.54
2016-11-16T22:29:52.579Z,9.48
2016-11-16T22:30:52.876Z,9.42
2016-11-16T22:31:52.567Z,9.57
2016-11-16T22:32:52.583Z,9.54
2016-11-16T22:33:52.547Z,9.54
2016-11-16T22:34:52.536Z,9.57
2016-11-16T22:35:52.527Z,9.47
2016-11-16T22:36:52.519Z,9.57
2016-11-16T22:37:52.507Z,9.46
2016-11-16T22:38:52.814Z,9.5
2016-11-16T22:39:52.496Z,9.47
2016-11-16T22:40:52.485Z,9.5
2016-11-16T22:41:52.472Z,9.5
2016-11-16T22:42:52.469Z,9.51
2016-11-16T22:43:52.457Z,9.53
2016-11-16T22:44:52.451Z,9.47
2016-11-16T22:45:52.444Z,9.46
2016-11-16T22:46:52.432Z,9.48
2016-11-16T22:47:52.423Z,9.47
2016-11-16T22:48:52.720Z,9.5
2016-11-16T22:49:52.406Z,9.48
2016-11-16T22:50:52.402Z,9.54
2016-11-16T22:51:52.385Z,9.53
2016-11-16T22:52:52.381Z,9.47
2016-11-16T22:53:52.368Z,9.48
2016-11-16T22:54:52.366Z,9.47
2016-11-16T22:55:52.354Z,9.48
2016-11-16T22:56:52.342Z,9.48
2016-11-16T22:57:52.340Z,9.48
2016-11-16T22:58:52.324Z,9.47
2016-11-16T22:59:52.318Z,9.48
2016-11-16T23:00:52.308Z,9.5
2016-11-16T23:01:52.301Z,9.46
2016-11-16T23:02:52.290Z,9.46
2016-11-16T23:03:52.319Z,9.47
2016-11-16T23:04:52.271Z,9.36
2016-11-16T23:05:52.278Z,9.43
2016-11-16T23:06:52.257Z,9.35
2016-11-16T23:07:52.256Z,9.4
2016-11-16T23:08:52.244Z,9.29
2016-11-16T23:09:52.224Z,9.39
2016-11-16T23:10:52.219Z,9.38
2016-11-16T23:11:52.212Z,9.39
2016-11-16T23:12:52.202Z,9.36
2016-11-16T23:13:52.492Z,9.29
2016-11-16T23:14:52.189Z,9.35
2016-11-16T23:15:52.176Z,9.32
2016-11-16T23:16:52.168Z,9.21
2016-11-16T23:17:52.157Z,9.29
2016-11-16T23:18:52.452Z,9.31
2016-11-16T23:19:52.441Z,9.29
2016-11-16T23:20:52.129Z,9.23
2016-11-16T23:21:52.124Z,9.24
2016-11-16T23:22:52.120Z,9.28
2016-11-16T23:23:52.107Z,9.17
2016-11-16T23:24:52.095Z,9.18
2016-11-16T23:25:52.088Z,9.23
2016-11-16T23:26:52.075Z,9.17
2016-11-16T23:27:52.095Z,9.18
2016-11-16T23:28:52.066Z,9.18
2016-11-16T23:29:52.054Z,9.2
2016-11-16T23:30:52.044Z,9.15
2016-11-16T23:31:52.033Z,9.14
2016-11-16T23:32:52.021Z,9.24
2016-11-16T23:33:52.322Z,9.13
2016-11-16T23:34:52.010Z,9.21
2016-11-16T23:35:52.003Z,9.13
2016-11-16T23:36:51.995Z,9.1
2016-11-16T23:37:51.987Z,9.15
2016-11-16T23:38:51.972Z,9.17
2016-11-16T23:39:51.962Z,9.15
2016-11-16T23:40:51.955Z,9.2
2016-11-16T23:41:51.949Z,9.02
2016-11-16T23:42:51.941Z,9.08
2016-11-16T23:43:51.929Z,9.13
2016-11-16T23:44:51.919Z,9.11
2016-11-16T23:45:51.915Z,9.05
2016-11-16T23:46:51.909Z,9.05
2016-11-16T23:47:51.889Z,9.04
2016-11-16T23:48:51.884Z,9.04
2016-11-16T23:49:51.870Z,9.1
2016-11-16T23:50:51.864Z,9.05
2016-11-16T23:51:51.855Z,9.01
2016-11-16T23:52:51.849Z,9.04
2016-11-16T23:53:51.846Z,8.96
2016-11-16T23:54:51.860Z,9.04
2016-11-16T23:55:51.824Z,9.02
2016-11-16T23:56:51.818Z,9.02
2016-11-16T23:57:52.111Z,9.02
2016-11-16T23:58:51.793Z,8.99
2016-11-16T23:59:51.788Z,9.08
